DTW weather

Detroit Metropolitan Wayne County Airport
Detroit, Michigan, United States

Public forecast

Using degrees Fahrenheit for public forecast. Weather courtesy of forecast.io.

Current aviation weather report (METAR) for Detroit Metropolitan Wayne County Airport

Retrieved 2019/10/23 00:53 UTC (54 minutes ago):

KDTW 230053Z 23011KT 10SM OVC060 09/05 A2977 RMK AO2 RAE19 SLP082 P0000 T00940050

Aviation forecast (TAF) for Detroit Metropolitan Wayne County Airport

Retrieved 2019-10-23 00:36 UTC (1 hour ago):

TAF KDTW 222335Z 2300/2406 22013G20KT P6SM SCT045 OVC080 FM230800 22013KT P6SM BKN045 FM231400 24015G25KT P6SM SCT045 FM232200 22010KT P6SM SCT045